Terminal Aerodrome Forecast
Issued by NWS

Home | Current Version | Previous Version | Text Only | Print | Product List | Glossary On
Versions: 1 2 3 4 5 6 7 8 9 10 11 12 13 14 15 16 17 18
000
FTUS45 KRIW 270500
TAFCOD
TAF
KCOD 270523Z 2706/2806 VRB04KT P6SM SCT026 BKN060
      TEMPO 2706/2709 BKN026
     FM271500 VRB05KT P6SM SCT060
     FM272300 02006KT P6SM VCSH SCT025 BKN040
     FM280200 01010KT 3SM -SN OVC018
      AMD LTD TO CLD VIS AND WIND=

USA.gov is the U.S. government's official web portal to all federal, state and local government web resources and services.